createdAt,value
2018-01-20T00:00:34.241Z,87.84
2018-01-20T00:01:34.235Z,87.84
2018-01-20T00:02:34.224Z,87.65
2018-01-20T00:03:34.219Z,88.31
2018-01-20T00:04:34.209Z,88.21
2018-01-20T00:05:34.228Z,87.84
2018-01-20T00:06:34.194Z,87.65
2018-01-20T00:07:34.187Z,87.55
2018-01-20T00:08:34.182Z,87.65
2018-01-20T00:09:34.173Z,87.84
2018-01-20T00:10:34.163Z,87.74
2018-01-20T00:11:34.155Z,87.93
2018-01-20T00:12:34.148Z,87.74
2018-01-20T00:13:34.141Z,87.65
2018-01-20T00:14:34.133Z,87.84
2018-01-20T00:15:34.125Z,87.93
2018-01-20T00:16:34.116Z,87.74
2018-01-20T00:17:34.113Z,87.84
2018-01-20T00:18:34.102Z,88.40
2018-01-20T00:19:34.093Z,87.55
2018-01-20T00:20:34.084Z,87.55
2018-01-20T00:21:34.079Z,87.84
2018-01-20T00:22:34.070Z,87.84
2018-01-20T00:23:34.061Z,88.87
2018-01-20T00:24:34.055Z,88.78
2018-01-20T00:25:34.103Z,88.87
2018-01-20T00:26:34.038Z,88.68
2018-01-20T00:27:34.030Z,88.59
2018-01-20T00:28:34.023Z,88.59
2018-01-20T00:29:34.014Z,88.78
2018-01-20T00:30:34.008Z,88.59
2018-01-20T00:31:34.003Z,88.49
2018-01-20T00:32:33.991Z,89.06
2018-01-20T00:33:33.981Z,88.78
2018-01-20T00:34:33.972Z,88.78
2018-01-20T00:35:33.966Z,89.16
2018-01-20T00:36:33.959Z,89.44
2018-01-20T00:37:33.951Z,89.35
2018-01-20T00:38:33.942Z,89.06
2018-01-20T00:39:33.936Z,89.63
2018-01-20T00:40:33.928Z,89.35
2018-01-20T00:41:33.921Z,89.16
2018-01-20T00:42:33.911Z,89.25
2018-01-20T00:43:33.903Z,89.44
2018-01-20T00:44:33.896Z,89.25
2018-01-20T00:45:33.888Z,89.16
2018-01-20T00:46:33.879Z,89.16
2018-01-20T00:47:33.871Z,89.25
2018-01-20T00:48:33.863Z,89.35
2018-01-20T00:49:33.862Z,89.44
2018-01-20T00:50:33.847Z,89.35
2018-01-20T00:51:33.840Z,88.78
2018-01-20T00:52:33.831Z,89.44
2018-01-20T00:53:33.824Z,89.16
2018-01-20T00:54:33.816Z,89.35
2018-01-20T00:55:33.807Z,89.25
2018-01-20T00:56:33.800Z,89.49
2018-01-20T00:57:33.794Z,89.63
2018-01-20T00:58:33.785Z,89.82
2018-01-20T00:59:33.777Z,89.63
2018-01-20T01:00:33.768Z,89.54
2018-01-20T01:01:33.760Z,89.35
2018-01-20T01:02:33.757Z,89.25
2018-01-20T01:03:33.744Z,89.35
2018-01-20T01:04:33.736Z,89.25
2018-01-20T01:05:33.733Z,88.78
2018-01-20T01:06:33.722Z,89.25
2018-01-20T01:07:33.712Z,89.06
2018-01-20T01:08:33.705Z,89.20
2018-01-20T01:09:33.697Z,89.58
2018-01-20T01:10:33.695Z,89.96
2018-01-20T01:11:33.684Z,89.49
2018-01-20T01:12:33.675Z,89.68
2018-01-20T01:13:33.665Z,90.06
2018-01-20T01:14:33.665Z,89.96
2018-01-20T01:15:33.649Z,90.72
2018-01-20T01:16:33.642Z,90.34
2018-01-20T01:17:33.634Z,90.72
2018-01-20T01:18:33.625Z,91.00
2018-01-20T01:19:33.617Z,90.81
2018-01-20T01:20:33.609Z,90.72
2018-01-20T01:21:33.602Z,90.91
2018-01-20T01:22:33.593Z,90.72
2018-01-20T01:23:33.587Z,90.72
2018-01-20T01:24:33.578Z,90.63
2018-01-20T01:25:33.572Z,90.44
2018-01-20T01:26:33.561Z,90.72
2018-01-20T01:27:33.554Z,90.63
2018-01-20T01:28:33.546Z,90.63
2018-01-20T01:29:33.538Z,90.81
2018-01-20T01:30:33.530Z,90.81
2018-01-20T01:31:33.524Z,90.44
2018-01-20T01:32:33.514Z,90.81
2018-01-20T01:33:33.506Z,90.53
2018-01-20T01:34:33.504Z,90.44
2018-01-20T01:35:33.490Z,90.53
2018-01-20T01:36:33.484Z,91.19
2018-01-20T01:37:33.475Z,91.19
2018-01-20T01:38:33.467Z,91.38
2018-01-20T01:39:33.459Z,91.29
2018-01-20T01:40:33.452Z,90.72
2018-01-20T01:41:33.443Z,91.19
2018-01-20T01:42:33.434Z,91.67
2018-01-20T01:43:33.426Z,91.19
2018-01-20T01:44:33.419Z,91.48
2018-01-20T01:45:33.412Z,91.48
2018-01-20T01:46:33.402Z,91.76
2018-01-20T01:47:33.394Z,91.57
2018-01-20T01:48:33.388Z,91.57
2018-01-20T01:49:33.379Z,91.10
2018-01-20T01:50:33.371Z,91.57
2018-01-20T01:51:33.364Z,91.67
2018-01-20T01:52:33.357Z,91.67
2018-01-20T01:53:33.353Z,91.29
2018-01-20T01:54:33.340Z,91.38
2018-01-20T01:55:33.332Z,91.19
2018-01-20T01:56:33.325Z,91.38
2018-01-20T01:57:33.318Z,91.38
2018-01-20T01:58:33.308Z,91.00
2018-01-20T01:59:33.299Z,90.53
2018-01-20T02:00:33.292Z,90.63
2018-01-20T02:01:33.285Z,90.63
2018-01-20T02:02:33.276Z,90.63
2018-01-20T02:03:33.269Z,90.72
2018-01-20T02:04:33.263Z,90.72
2018-01-20T02:05:33.254Z,90.72
2018-01-20T02:06:33.245Z,91.10
2018-01-20T02:07:33.238Z,90.53
2018-01-20T02:08:33.230Z,90.53
2018-01-20T02:09:33.221Z,91.29
2018-01-20T02:10:33.212Z,91.29
2018-01-20T02:11:33.205Z,91.00
2018-01-20T02:12:33.198Z,90.44
2018-01-20T02:13:33.189Z,90.53
2018-01-20T02:14:33.180Z,90.72
2018-01-20T02:15:33.174Z,90.72
2018-01-20T02:16:33.166Z,90.81
2018-01-20T02:17:33.160Z,90.81
2018-01-20T02:18:33.151Z,90.72
2018-01-20T02:19:33.149Z,90.53
2018-01-20T02:20:33.134Z,90.53
2018-01-20T02:21:33.128Z,90.72
2018-01-20T02:22:33.118Z,90.63
2018-01-20T02:23:33.112Z,89.87
2018-01-20T02:24:33.104Z,89.77
2018-01-20T02:25:33.097Z,89.25
2018-01-20T02:26:33.087Z,89.77
2018-01-20T02:27:33.080Z,89.39
2018-01-20T02:28:33.072Z,89.30
2018-01-20T02:29:33.064Z,89.77
2018-01-20T02:30:33.056Z,89.39
2018-01-20T02:31:33.048Z,89.49
2018-01-20T02:32:33.040Z,89.39
2018-01-20T02:33:33.034Z,89.49
2018-01-20T02:34:33.026Z,89.39
2018-01-20T02:35:33.018Z,89.30
2018-01-20T02:36:33.010Z,89.68
2018-01-20T02:37:33.006Z,89.30
2018-01-20T02:38:32.994Z,89.58
2018-01-20T02:39:32.987Z,89.20
2018-01-20T02:40:32.978Z,89.39
2018-01-20T02:41:32.971Z,89.68
2018-01-20T02:42:32.962Z,89.49
2018-01-20T02:43:32.954Z,89.39
2018-01-20T02:44:32.947Z,89.39
2018-01-20T02:45:32.940Z,89.30
2018-01-20T02:46:32.931Z,89.30
2018-01-20T02:47:32.923Z,89.49
2018-01-20T02:48:32.916Z,89.96
2018-01-20T02:49:32.909Z,89.82
2018-01-20T02:50:32.901Z,89.35
2018-01-20T02:51:32.894Z,88.40
2018-01-20T02:52:32.885Z,88.12
2018-01-20T02:53:32.878Z,88.12
2018-01-20T02:54:32.869Z,87.46
2018-01-20T02:55:32.862Z,87.36
2018-01-20T02:56:32.854Z,87.74
2018-01-20T02:57:32.847Z,87.55
2018-01-20T02:58:32.842Z,87.84
2018-01-20T02:59:32.831Z,87.08
2018-01-20T03:00:32.822Z,87.46
2018-01-20T03:01:32.816Z,86.60
2018-01-20T03:02:32.806Z,86.89
2018-01-20T03:03:32.804Z,87.08
2018-01-20T03:04:32.794Z,86.60
2018-01-20T03:05:32.785Z,86.98
2018-01-20T03:06:32.776Z,86.70
2018-01-20T03:07:32.768Z,86.22
2018-01-20T03:08:32.760Z,86.32
2018-01-20T03:09:32.787Z,86.41
2018-01-20T03:10:32.745Z,86.41
2018-01-20T03:11:32.736Z,86.89
2018-01-20T03:12:32.730Z,86.98
2018-01-20T03:13:32.721Z,86.79
2018-01-20T03:14:32.713Z,86.79
2018-01-20T03:15:32.706Z,86.32
2018-01-20T03:16:32.696Z,86.51
2018-01-20T03:17:32.690Z,86.70
2018-01-20T03:18:32.681Z,86.32
2018-01-20T03:19:32.674Z,86.51
2018-01-20T03:20:32.666Z,86.32
2018-01-20T03:21:32.658Z,86.60
2018-01-20T03:22:32.651Z,86.70
2018-01-20T03:23:32.641Z,86.89
2018-01-20T03:24:32.636Z,86.89
2018-01-20T03:25:32.628Z,86.89
2018-01-20T03:26:32.618Z,87.27
2018-01-20T03:27:32.610Z,86.79
2018-01-20T03:28:32.602Z,86.70
2018-01-20T03:29:32.595Z,86.89
2018-01-20T03:30:32.588Z,86.79
2018-01-20T03:31:32.583Z,86.79
2018-01-20T03:32:32.572Z,86.89
2018-01-20T03:33:32.563Z,86.89
2018-01-20T03:34:32.555Z,86.89
2018-01-20T03:35:32.548Z,86.79
2018-01-20T03:36:32.539Z,86.70
2018-01-20T03:37:32.532Z,86.70
2018-01-20T03:38:32.524Z,86.89
2018-01-20T03:39:32.517Z,86.89
2018-01-20T03:40:32.509Z,87.55
2018-01-20T03:41:32.500Z,87.27
2018-01-20T03:42:32.492Z,86.79
2018-01-20T03:43:32.483Z,87.55
2018-01-20T03:44:32.476Z,87.46
2018-01-20T03:45:32.469Z,87.46
2018-01-20T03:46:32.460Z,87.46
2018-01-20T03:47:32.453Z,87.65
2018-01-20T03:48:32.445Z,87.65
2018-01-20T03:49:32.437Z,87.65
2018-01-20T03:50:32.431Z,87.55
2018-01-20T03:51:32.420Z,88.02
2018-01-20T03:52:32.413Z,87.84
2018-01-20T03:53:32.405Z,88.21
2018-01-20T03:54:32.396Z,87.55
2018-01-20T03:55:32.389Z,87.93
2018-01-20T03:56:32.380Z,87.55
2018-01-20T03:57:32.373Z,87.55
2018-01-20T03:58:32.363Z,87.27
2018-01-20T03:59:32.356Z,86.98
2018-01-20T04:00:32.348Z,86.79
2018-01-20T04:01:32.345Z,86.89
2018-01-20T04:02:32.332Z,86.98
2018-01-20T04:03:32.324Z,86.51
2018-01-20T04:04:32.317Z,86.22
2018-01-20T04:05:32.308Z,86.51
2018-01-20T04:06:32.301Z,86.32
2018-01-20T04:07:32.292Z,86.60
2018-01-20T04:08:32.284Z,86.22
2018-01-20T04:09:32.278Z,86.04
2018-01-20T04:10:32.267Z,86.41
2018-01-20T04:11:32.259Z,86.13
2018-01-20T04:12:32.251Z,85.85
2018-01-20T04:13:32.244Z,86.32
2018-01-20T04:14:32.235Z,86.41
2018-01-20T04:15:32.227Z,86.22
2018-01-20T04:16:32.220Z,85.75
2018-01-20T04:17:32.212Z,86.32
2018-01-20T04:18:32.204Z,86.32
2018-01-20T04:19:32.195Z,86.13
2018-01-20T04:20:32.191Z,86.13
2018-01-20T04:21:32.179Z,85.66
2018-01-20T04:22:32.170Z,86.13
2018-01-20T04:23:32.161Z,86.41
2018-01-20T04:24:32.154Z,86.13
2018-01-20T04:25:32.145Z,85.85
2018-01-20T04:26:32.138Z,86.13
2018-01-20T04:27:32.131Z,85.85
2018-01-20T04:28:32.122Z,85.94
2018-01-20T04:29:32.114Z,86.22
2018-01-20T04:30:32.105Z,86.04
2018-01-20T04:31:32.097Z,85.75
2018-01-20T04:32:32.092Z,86.32
2018-01-20T04:33:32.082Z,86.32
2018-01-20T04:34:32.090Z,86.13
2018-01-20T04:35:32.065Z,86.13
2018-01-20T04:36:32.057Z,86.13
2018-01-20T04:37:32.050Z,85.85
2018-01-20T04:38:32.042Z,85.94
2018-01-20T04:39:32.033Z,86.60
2018-01-20T04:40:32.026Z,87.02
2018-01-20T04:41:32.019Z,86.93
2018-01-20T04:42:32.009Z,87.12
2018-01-20T04:43:32.005Z,86.89
2018-01-20T04:44:31.994Z,86.89
2018-01-20T04:45:31.987Z,87.21
2018-01-20T04:46:31.977Z,86.83
2018-01-20T04:47:31.970Z,87.02
2018-01-20T04:48:31.963Z,86.89
2018-01-20T04:49:31.954Z,86.65
2018-01-20T04:50:31.945Z,86.83
2018-01-20T04:51:31.938Z,86.83
2018-01-20T04:52:31.930Z,86.93
2018-01-20T04:53:31.924Z,87.02
2018-01-20T04:54:31.914Z,86.74
2018-01-20T04:55:31.906Z,86.93
2018-01-20T04:56:31.898Z,86.83
2018-01-20T04:57:31.891Z,86.93
2018-01-20T04:58:31.882Z,86.93
2018-01-20T04:59:31.875Z,87.02
2018-01-20T05:00:31.868Z,86.70
2018-01-20T05:01:31.859Z,86.93
2018-01-20T05:02:31.849Z,87.12
2018-01-20T05:03:31.842Z,86.93
2018-01-20T05:04:31.834Z,86.83
2018-01-20T05:05:31.827Z,86.93
2018-01-20T05:06:31.820Z,86.93
2018-01-20T05:07:31.811Z,86.83
2018-01-20T05:08:31.803Z,86.93
2018-01-20T05:09:31.796Z,86.93
2018-01-20T05:10:31.787Z,86.74
2018-01-20T05:11:31.780Z,86.93
2018-01-20T05:12:31.773Z,86.83
2018-01-20T05:13:31.765Z,86.93
2018-01-20T05:14:31.755Z,86.83
2018-01-20T05:15:31.748Z,86.89
2018-01-20T05:16:31.740Z,86.46
2018-01-20T05:17:31.733Z,86.46
2018-01-20T05:18:31.726Z,86.65
2018-01-20T05:19:31.717Z,87.12
2018-01-20T05:20:31.708Z,86.65
2018-01-20T05:21:31.701Z,86.46
2018-01-20T05:22:31.694Z,86.74
2018-01-20T05:23:31.684Z,86.89
2018-01-20T05:24:31.678Z,87.21
2018-01-20T05:25:31.674Z,87.08
2018-01-20T05:26:31.661Z,86.89
2018-01-20T05:27:31.655Z,86.79
2018-01-20T05:28:31.646Z,86.79
2018-01-20T05:29:31.638Z,86.32
2018-01-20T05:30:31.631Z,86.60
2018-01-20T05:31:31.626Z,86.51
2018-01-20T05:32:31.615Z,86.13
2018-01-20T05:33:31.606Z,86.04
2018-01-20T05:34:31.598Z,86.13
2018-01-20T05:35:31.590Z,86.32
2018-01-20T05:36:31.583Z,86.22
2018-01-20T05:37:31.575Z,86.13
2018-01-20T05:38:31.568Z,86.41
2018-01-20T05:39:31.560Z,86.22
2018-01-20T05:40:31.551Z,86.41
2018-01-20T05:41:31.545Z,86.13
2018-01-20T05:42:31.535Z,86.22
2018-01-20T05:43:31.529Z,86.70
2018-01-20T05:44:31.520Z,87.08
2018-01-20T05:45:31.514Z,86.60
2018-01-20T05:46:31.503Z,86.89
2018-01-20T05:47:31.497Z,86.60
2018-01-20T05:48:31.488Z,86.60
2018-01-20T05:49:31.481Z,86.65
2018-01-20T05:50:31.472Z,86.79
2018-01-20T05:51:31.464Z,86.93
2018-01-20T05:52:31.458Z,86.93
2018-01-20T05:53:31.449Z,86.65
2018-01-20T05:54:31.442Z,86.93
2018-01-20T05:55:31.433Z,86.65
2018-01-20T05:56:31.427Z,87.12
2018-01-20T05:57:31.420Z,87.12
2018-01-20T05:58:31.410Z,86.93
2018-01-20T05:59:31.402Z,86.65
2018-01-20T06:00:31.396Z,86.93
2018-01-20T06:01:31.387Z,86.74
2018-01-20T06:02:31.378Z,86.65
2018-01-20T06:03:31.371Z,87.69
2018-01-20T06:04:31.364Z,87.02
2018-01-20T06:05:31.358Z,86.83
2018-01-20T06:06:31.347Z,86.83
2018-01-20T06:07:31.340Z,87.31
2018-01-20T06:08:31.332Z,86.93
2018-01-20T06:09:31.326Z,87.12
2018-01-20T06:10:31.319Z,87.12
2018-01-20T06:11:31.315Z,87.02
2018-01-20T06:12:31.301Z,86.93
2018-01-20T06:13:31.294Z,87.12
2018-01-20T06:14:31.286Z,87.31
2018-01-20T06:15:31.278Z,87.31
2018-01-20T06:16:31.270Z,86.83
2018-01-20T06:17:31.262Z,87.02
2018-01-20T06:18:31.253Z,87.21
2018-01-20T06:19:31.246Z,87.31
2018-01-20T06:20:31.238Z,87.78
2018-01-20T06:21:31.230Z,87.31
2018-01-20T06:22:31.222Z,87.21
2018-01-20T06:23:31.216Z,87.69
2018-01-20T06:24:31.208Z,86.83
2018-01-20T06:25:31.199Z,87.31
2018-01-20T06:26:31.200Z,87.12
2018-01-20T06:27:31.183Z,87.31
2018-01-20T06:28:31.176Z,87.69
2018-01-20T06:29:31.169Z,86.83
2018-01-20T06:30:31.160Z,87.21
2018-01-20T06:31:31.152Z,87.40
2018-01-20T06:32:31.145Z,87.21
2018-01-20T06:33:31.137Z,87.59
2018-01-20T06:34:31.128Z,87.69
2018-01-20T06:35:31.120Z,87.50
2018-01-20T06:36:31.117Z,87.31
2018-01-20T06:37:31.106Z,88.17
2018-01-20T06:38:31.098Z,87.59
2018-01-20T06:39:31.090Z,87.98
2018-01-20T06:40:31.083Z,87.88
2018-01-20T06:41:31.075Z,87.78
2018-01-20T06:42:31.070Z,87.78
2018-01-20T06:43:31.059Z,87.78
2018-01-20T06:44:31.054Z,87.59
2018-01-20T06:45:31.044Z,87.78
2018-01-20T06:46:31.035Z,87.59
2018-01-20T06:47:31.027Z,87.59
2018-01-20T06:48:31.026Z,87.50
2018-01-20T06:49:31.012Z,87.59
2018-01-20T06:50:31.002Z,87.69
2018-01-20T06:51:30.996Z,87.98
2018-01-20T06:52:30.988Z,88.07
2018-01-20T06:53:30.982Z,87.40
2018-01-20T06:54:30.973Z,87.88
2018-01-20T06:55:30.965Z,87.40
2018-01-20T06:56:30.957Z,87.88
2018-01-20T06:57:30.950Z,87.69
2018-01-20T06:58:30.943Z,87.69
2018-01-20T06:59:30.935Z,87.69
2018-01-20T07:00:30.928Z,87.69
2018-01-20T07:01:30.920Z,87.69
2018-01-20T07:02:30.912Z,87.59
2018-01-20T07:03:30.903Z,87.50
2018-01-20T07:04:30.895Z,87.69
2018-01-20T07:05:30.888Z,87.50
2018-01-20T07:06:30.879Z,87.78
2018-01-20T07:07:30.872Z,87.78
2018-01-20T07:08:30.865Z,87.78
2018-01-20T07:09:30.857Z,87.59
2018-01-20T07:10:30.850Z,87.50
2018-01-20T07:11:30.842Z,87.50
2018-01-20T07:12:30.834Z,88.17
2018-01-20T07:13:30.826Z,89.30
2018-01-20T07:14:30.818Z,88.82
2018-01-20T07:15:30.810Z,88.64
2018-01-20T07:16:30.804Z,88.26
2018-01-20T07:17:30.795Z,87.88
2018-01-20T07:18:30.788Z,88.26
2018-01-20T07:19:30.781Z,88.64
2018-01-20T07:20:30.772Z,89.01
2018-01-20T07:21:30.765Z,88.17
2018-01-20T07:22:30.756Z,88.45
2018-01-20T07:23:30.749Z,87.88
2018-01-20T07:24:30.742Z,88.35
2018-01-20T07:25:30.734Z,87.69
2018-01-20T07:26:30.726Z,88.26
2018-01-20T07:27:30.718Z,87.88
2018-01-20T07:28:30.711Z,87.69
2018-01-20T07:29:30.704Z,88.07
2018-01-20T07:30:30.696Z,87.98
2018-01-20T07:31:30.688Z,88.07
2018-01-20T07:32:30.680Z,86.83
2018-01-20T07:33:30.674Z,88.35
2018-01-20T07:34:30.666Z,88.73
2018-01-20T07:35:30.657Z,88.96
2018-01-20T07:36:30.696Z,90.91
2018-01-20T07:37:30.643Z,91.10
2018-01-20T07:38:30.635Z,90.34
2018-01-20T07:39:30.628Z,90.34
2018-01-20T07:40:30.619Z,89.39
2018-01-20T07:41:30.612Z,90.25
2018-01-20T07:42:30.604Z,90.15
2018-01-20T07:43:30.596Z,89.68
2018-01-20T07:44:30.589Z,89.77
2018-01-20T07:45:30.582Z,90.25
2018-01-20T07:46:30.573Z,89.20
2018-01-20T07:47:30.566Z,89.01
2018-01-20T07:48:30.559Z,88.82
2018-01-20T07:49:30.552Z,89.39
2018-01-20T07:50:30.543Z,88.82
2018-01-20T07:51:30.536Z,89.11
2018-01-20T07:52:30.529Z,89.30
2018-01-20T07:53:30.522Z,88.92
2018-01-20T07:54:30.521Z,87.73
2018-01-20T07:55:30.507Z,92.76
2018-01-20T07:56:30.500Z,93.23
2018-01-20T07:57:30.498Z,92.28
2018-01-20T07:58:30.482Z,92.24
2018-01-20T07:59:30.474Z,91.10
2018-01-20T08:00:30.468Z,90.81
2018-01-20T08:01:30.460Z,90.86
2018-01-20T08:02:30.452Z,90.44
2018-01-20T08:03:30.446Z,90.15
2018-01-20T08:04:30.438Z,89.44
2018-01-20T08:05:30.430Z,91.00
2018-01-20T08:06:30.422Z,90.72
2018-01-20T08:07:30.415Z,90.63
2018-01-20T08:08:30.408Z,90.63
2018-01-20T08:09:30.401Z,91.00
2018-01-20T08:10:30.393Z,90.81
2018-01-20T08:11:30.384Z,90.63
2018-01-20T08:12:30.379Z,90.81
2018-01-20T08:13:30.371Z,90.72
2018-01-20T08:14:30.364Z,90.63
2018-01-20T08:15:30.356Z,90.63
2018-01-20T08:16:30.348Z,90.81
2018-01-20T08:17:30.342Z,90.72
2018-01-20T08:18:30.332Z,90.72
2018-01-20T08:19:30.326Z,90.72
2018-01-20T08:20:30.319Z,90.15
2018-01-20T08:21:30.310Z,90.53
2018-01-20T08:22:30.303Z,90.72
2018-01-20T08:23:30.298Z,89.87
2018-01-20T08:24:30.287Z,90.15
2018-01-20T08:25:30.280Z,90.06
2018-01-20T08:26:30.275Z,89.96
2018-01-20T08:27:30.265Z,89.49
2018-01-20T08:28:30.258Z,89.91
2018-01-20T08:29:30.250Z,90.20
2018-01-20T08:30:30.242Z,90.39
2018-01-20T08:31:30.236Z,90.77
2018-01-20T08:32:30.228Z,90.67
2018-01-20T08:33:30.221Z,90.58
2018-01-20T08:34:30.217Z,90.67
2018-01-20T08:35:30.206Z,90.77
2018-01-20T08:36:30.199Z,90.48
2018-01-20T08:37:30.191Z,90.77
2018-01-20T08:38:30.185Z,90.67
2018-01-20T08:39:30.176Z,92.00
2018-01-20T08:40:30.171Z,91.71
2018-01-20T08:41:30.164Z,91.43
2018-01-20T08:42:30.159Z,92.00
2018-01-20T08:43:30.148Z,92.28
2018-01-20T08:44:30.140Z,92.57
2018-01-20T08:45:30.135Z,92.47
2018-01-20T08:46:30.125Z,92.19
2018-01-20T08:47:30.120Z,92.38
2018-01-20T08:48:30.113Z,92.19
2018-01-20T08:49:30.106Z,92.28
2018-01-20T08:50:30.102Z,91.71
2018-01-20T08:51:30.090Z,91.81
2018-01-20T08:52:30.085Z,92.00
2018-01-20T08:53:30.076Z,91.33
2018-01-20T08:54:30.068Z,91.33
2018-01-20T08:55:30.061Z,90.77
2018-01-20T08:56:30.055Z,90.77
2018-01-20T08:57:30.048Z,90.77
2018-01-20T08:58:30.040Z,90.77
2018-01-20T08:59:30.033Z,91.14
2018-01-20T09:00:30.026Z,91.24
2018-01-20T09:01:30.020Z,90.58
2018-01-20T09:02:30.012Z,90.86
2018-01-20T09:03:30.007Z,90.77
2018-01-20T09:04:30.000Z,90.58
2018-01-20T09:05:29.991Z,90.39
2018-01-20T09:06:29.983Z,90.67
2018-01-20T09:07:29.977Z,91.52
2018-01-20T09:08:29.969Z,91.24
2018-01-20T09:09:29.963Z,90.77
2018-01-20T09:10:29.955Z,91.52
2018-01-20T09:11:29.949Z,91.33
2018-01-20T09:12:29.941Z,91.43
2018-01-20T09:13:29.935Z,91.43
2018-01-20T09:14:29.926Z,91.62
2018-01-20T09:15:29.920Z,92.09
2018-01-20T09:16:29.914Z,92.09
2018-01-20T09:17:29.908Z,91.62
2018-01-20T09:18:29.900Z,92.09
2018-01-20T09:19:29.894Z,91.90
2018-01-20T09:20:29.887Z,91.90
2018-01-20T09:21:29.879Z,91.43
2018-01-20T09:22:29.872Z,91.33
2018-01-20T09:23:29.866Z,92.19
2018-01-20T09:24:29.858Z,92.28
2018-01-20T09:25:29.851Z,92.38
2018-01-20T09:26:29.844Z,92.76
2018-01-20T09:27:29.837Z,93.80
2018-01-20T09:28:29.830Z,93.70
2018-01-20T09:29:29.824Z,93.70
2018-01-20T09:30:29.816Z,93.70
2018-01-20T09:31:29.809Z,94.93
2018-01-20T09:32:29.802Z,94.18
2018-01-20T09:33:29.795Z,94.37
2018-01-20T09:34:29.788Z,94.84
2018-01-20T09:35:29.781Z,95.12
2018-01-20T09:36:29.774Z,95.60
2018-01-20T09:37:29.767Z,95.60
2018-01-20T09:38:29.759Z,95.98
2018-01-20T09:39:29.754Z,95.88
2018-01-20T09:40:29.746Z,96.36
2018-01-20T09:41:29.744Z,96.26
2018-01-20T09:42:29.732Z,96.07
2018-01-20T09:43:29.725Z,95.88
2018-01-20T09:44:29.717Z,95.98
2018-01-20T09:45:29.712Z,95.50
2018-01-20T09:46:29.711Z,95.69
2018-01-20T09:47:29.698Z,94.56
2018-01-20T09:48:29.694Z,96.26
2018-01-20T09:49:29.684Z,97.16
2018-01-20T09:50:29.676Z,97.11
2018-01-20T09:51:29.672Z,97.11
2018-01-20T09:52:29.664Z,96.55
2018-01-20T09:53:29.657Z,97.02
2018-01-20T09:54:29.651Z,96.45
2018-01-20T09:55:29.644Z,96.55
2018-01-20T09:56:29.637Z,96.45
2018-01-20T09:57:29.631Z,96.36
2018-01-20T09:58:29.623Z,95.98
2018-01-20T09:59:29.617Z,95.98
2018-01-20T10:00:29.610Z,95.79
2018-01-20T10:01:29.605Z,96.45
2018-01-20T10:02:29.596Z,95.03
2018-01-20T10:03:29.590Z,95.50
2018-01-20T10:04:29.583Z,95.88
2018-01-20T10:05:29.577Z,96.73
2018-01-20T10:06:29.571Z,96.78
2018-01-20T10:07:29.563Z,97.16
2018-01-20T10:08:29.557Z,97.30
2018-01-20T10:09:29.552Z,96.78
2018-01-20T10:10:29.544Z,97.21
2018-01-20T10:11:29.537Z,96.69
2018-01-20T10:12:29.531Z,96.59
2018-01-20T10:13:29.526Z,97.54
2018-01-20T10:14:29.517Z,97.78
2018-01-20T10:15:29.510Z,97.26
2018-01-20T10:16:29.506Z,98.11
2018-01-20T10:17:29.501Z,98.11
2018-01-20T10:18:29.490Z,97.83
2018-01-20T10:19:29.484Z,98.30
2018-01-20T10:20:29.478Z,98.21
2018-01-20T10:21:29.473Z,98.87
2018-01-20T10:22:29.465Z,98.30
2018-01-20T10:23:29.460Z,98.30
2018-01-20T10:24:29.452Z,98.49
2018-01-20T10:25:29.446Z,98.21
2018-01-20T10:26:29.438Z,98.21
2018-01-20T10:27:29.432Z,98.68
2018-01-20T10:28:29.430Z,99.15
2018-01-20T10:29:29.420Z,99.25
2018-01-20T10:30:29.413Z,98.96
2018-01-20T10:31:29.407Z,98.68
2018-01-20T10:32:29.399Z,99.15
2018-01-20T10:33:29.393Z,99.34
2018-01-20T10:34:29.386Z,99.63
2018-01-20T10:35:29.381Z,99.15
2018-01-20T10:36:29.375Z,99.25
2018-01-20T10:37:29.369Z,99.72
2018-01-20T10:38:29.362Z,99.25
2018-01-20T10:39:29.355Z,99.44
2018-01-20T10:40:29.349Z,99.34
2018-01-20T10:41:29.346Z,99.82
2018-01-20T10:42:29.335Z,99.06
2018-01-20T10:43:29.330Z,99.53
2018-01-20T10:44:29.323Z,99.82
2018-01-20T10:45:29.316Z,99.72
2018-01-20T10:46:29.310Z,99.63
2018-01-20T10:47:29.303Z,99.72
2018-01-20T10:48:29.298Z,99.99
2018-01-20T10:49:29.293Z,99.91
2018-01-20T10:50:29.286Z,99.99
2018-01-20T10:51:29.279Z,99.63
2018-01-20T10:52:29.272Z,99.82
2018-01-20T10:53:29.266Z,99.99
2018-01-20T10:54:29.259Z,99.58
2018-01-20T10:55:29.254Z,99.99
2018-01-20T10:56:29.248Z,99.99
2018-01-20T10:57:29.242Z,99.34
2018-01-20T10:58:29.234Z,99.91
2018-01-20T10:59:29.235Z,99.99
2018-01-20T11:00:29.223Z,99.99
2018-01-20T11:01:29.217Z,99.99
2018-01-20T11:02:29.210Z,99.99
2018-01-20T11:03:29.205Z,99.82
2018-01-20T11:04:29.200Z,98.58
2018-01-20T11:05:29.195Z,98.96
2018-01-20T11:06:29.187Z,98.58
2018-01-20T11:07:29.182Z,99.15
2018-01-20T11:08:29.175Z,99.53
2018-01-20T11:09:29.172Z,99.25
2018-01-20T11:10:29.164Z,99.44
2018-01-20T11:11:29.157Z,99.01
2018-01-20T11:12:29.153Z,98.63
2018-01-20T11:13:29.146Z,99.11
2018-01-20T11:14:29.139Z,98.63
2018-01-20T11:15:29.135Z,99.99
2018-01-20T11:16:29.127Z,98.54
2018-01-20T11:17:29.121Z,99.99
2018-01-20T11:18:29.115Z,99.99
2018-01-20T11:19:29.109Z,99.99
2018-01-20T11:20:29.103Z,99.99
2018-01-20T11:21:29.097Z,99.99
2018-01-20T11:22:29.090Z,99.99
2018-01-20T11:23:29.089Z,99.99
2018-01-20T11:24:29.080Z,99.99
2018-01-20T11:25:29.074Z,99.99
2018-01-20T11:26:29.068Z,99.99
2018-01-20T11:27:29.062Z,99.99
2018-01-20T11:28:29.057Z,99.99
2018-01-20T11:29:29.050Z,99.99
2018-01-20T11:30:29.045Z,99.99
2018-01-20T11:31:29.039Z,99.99
2018-01-20T11:32:29.034Z,99.99
2018-01-20T11:33:29.027Z,99.99
2018-01-20T11:34:29.021Z,99.99
2018-01-20T11:35:29.015Z,99.99
2018-01-20T11:36:29.008Z,99.99
2018-01-20T11:37:29.003Z,99.99
2018-01-20T11:38:28.996Z,99.99
2018-01-20T11:39:28.991Z,99.99
2018-01-20T11:40:28.985Z,99.99
2018-01-20T11:41:28.979Z,99.99
2018-01-20T11:42:28.981Z,99.99
2018-01-20T11:43:28.967Z,99.99
2018-01-20T11:44:28.961Z,99.34
2018-01-20T11:45:28.956Z,99.63
2018-01-20T11:46:28.950Z,98.77
2018-01-20T11:47:28.943Z,99.15
2018-01-20T11:48:28.938Z,98.77
2018-01-20T11:49:28.933Z,98.96
2018-01-20T11:50:28.927Z,99.06
2018-01-20T11:51:28.920Z,98.58
2018-01-20T11:52:28.915Z,98.87
2018-01-20T11:53:28.910Z,98.87
2018-01-20T11:54:28.959Z,99.25
2018-01-20T11:55:28.901Z,98.49
2018-01-20T11:56:28.891Z,98.21
2018-01-20T11:57:28.885Z,98.39
2018-01-20T11:58:28.879Z,98.11
2018-01-20T11:59:28.872Z,98.96
2018-01-20T12:00:28.867Z,98.96
2018-01-20T12:01:28.861Z,99.15
2018-01-20T12:02:28.854Z,99.15
2018-01-20T12:03:28.849Z,98.96
2018-01-20T12:04:28.843Z,99.25
2018-01-20T12:05:28.837Z,98.87
2018-01-20T12:06:28.831Z,98.39
2018-01-20T12:07:28.827Z,99.15
2018-01-20T12:08:28.820Z,99.63
2018-01-20T12:09:28.816Z,99.34
2018-01-20T12:10:28.808Z,98.96
2018-01-20T12:11:28.803Z,98.77
2018-01-20T12:12:28.796Z,99.53
2018-01-20T12:13:28.790Z,99.63
2018-01-20T12:14:28.784Z,99.34
2018-01-20T12:15:28.778Z,99.49
2018-01-20T12:16:28.772Z,99.99
2018-01-20T12:17:28.765Z,99.99
2018-01-20T12:18:28.760Z,99.99
2018-01-20T12:19:28.755Z,99.99
2018-01-20T12:20:28.748Z,99.82
2018-01-20T12:21:28.742Z,99.99
2018-01-20T12:22:28.738Z,99.99
2018-01-20T12:23:28.731Z,99.72
2018-01-20T12:24:28.727Z,99.99
2018-01-20T12:25:28.720Z,99.99
2018-01-20T12:26:28.712Z,99.34
2018-01-20T12:27:28.706Z,99.99
2018-01-20T12:28:28.705Z,99.99
2018-01-20T12:29:28.695Z,99.44
2018-01-20T12:30:28.690Z,99.63
2018-01-20T12:31:28.685Z,99.63
2018-01-20T12:32:28.677Z,99.99
2018-01-20T12:33:28.672Z,99.99
2018-01-20T12:34:28.667Z,99.99
2018-01-20T12:35:28.660Z,99.99
2018-01-20T12:36:28.654Z,99.99
2018-01-20T12:37:28.647Z,99.99
2018-01-20T12:38:28.640Z,99.99
2018-01-20T12:39:28.635Z,99.99
2018-01-20T12:40:28.630Z,99.99
2018-01-20T12:41:28.624Z,99.99
2018-01-20T12:42:28.617Z,99.99
2018-01-20T12:43:28.611Z,99.99
2018-01-20T12:44:28.605Z,99.99
2018-01-20T12:45:28.600Z,99.99
2018-01-20T12:46:28.593Z,99.99
2018-01-20T12:47:28.587Z,99.99
2018-01-20T12:48:28.581Z,99.99
2018-01-20T12:49:28.577Z,99.99
2018-01-20T12:50:28.571Z,99.99
2018-01-20T12:51:28.564Z,99.99
2018-01-20T12:52:28.558Z,99.99